Latest Weather Observations for Jabiru

IDD60801

Issued at 11:31 pm CST Thursday 30 June 2016 (issued every 30 minutes, with the page automatically refreshed every 10 minutes)

About weather observations | Map of weather stations | Latest weather observations for NT | Other Formats
Station Details ID: 014198 Name: JABIRU AIRPORT Lat: -12.66 Lon: 132.89 Height: 26.5 m
Data from the previous 72 hours. | See also: Recent months at Jabiru
Date/Time
CST
Temp
°C
App
Temp
°C
Dew
Point
°C
Rel
Hum
%
Delta-T
°C
Wind Press
QNH
hPa
Press
MSL
hPa
Rain since
9am
mm
Dir  Spd
km/h
Gust
km/h
Spd
kts
Gust
kts
30/11:30pm 25.6 25.5 15.0 52 6.4 ESE 9 15 5 8 1014.8 1014.6 0.0
30/11:00pm 25.7 25.7 15.1 52 6.4 ESE 9 11 5 6 1014.6 1014.4 0.0
30/10:30pm 25.9 26.4 15.6 53 6.3 ESE 7 9 4 5 1014.7 1014.5 0.0
30/10:00pm 25.9 26.4 15.6 53 6.3 ESE 7 7 4 4 1014.7 1014.5 0.0
30/09:30pm 26.3 26.9 15.4 51 6.6 ESE 6 7 3 4 1014.7 1014.5 0.0
30/09:00pm 27.0 27.6 15.4 49 7.1 ESE 6 9 3 5 1014.6 1014.4 0.0
30/08:30pm 27.9 28.4 15.5 46 7.6 ESE 7 15 4 8 1014.2 1014.0 0.0
30/08:00pm 28.2 28.7 15.5 46 7.8 ESE 7 9 4 5 1013.8 1013.6 0.0
30/07:30pm 28.8 29.4 15.7 45 8.1 ESE 7 11 4 6 1013.5 1013.3 0.0
30/07:00pm 29.6 29.2 15.3 41 8.8 ESE 11 13 6 7 1013.1 1012.9 0.0
30/06:30pm 30.9 30.2 15.3 38 9.6 SE 13 20 7 11 1012.9 1012.7 0.0
30/06:00pm 31.3 30.9 15.3 38 9.9 ESE 11 17 6 9 1012.6 1012.4 0.0
30/05:30pm 31.8 30.7 15.3 37 10.2 E 15 22 8 12 1012.3 1012.1 0.0
30/05:00pm 32.7 31.9 15.2 34 10.8 ESE 13 20 7 11 1012.1 1011.9 0.0
30/04:30pm 32.5 31.5 15.5 36 10.6 ESE 15 22 8 12 1012.1 1011.9 0.0
30/04:00pm 32.2 31.8 15.2 35 10.5 ESE 11 19 6 10 1012.0 1011.8 0.0
30/03:30pm 33.1 32.1 15.6 35 10.9 SSE 15 24 8 13 1012.2 1012.0 0.0
30/03:00pm 33.4 33.0 16.3 36 10.8 SE 13 26 7 14 1012.4 1012.2 0.0
30/02:30pm 32.6 31.9 16.4 37 10.2 SSE 15 24 8 13 1012.9 1012.7 0.0
30/02:00pm 32.0 31.3 16.3 39 9.9 SE 15 24 8 13 1013.3 1013.1 0.0
30/01:30pm 31.7 30.8 16.8 40 9.4 ESE 17 32 9 17 1013.7 1013.5 0.0
30/01:00pm 31.3 30.3 16.5 41 9.3 SE 17 26 9 14 1014.3 1014.1 0.0
30/12:30pm 31.1 30.1 16.7 42 9.1 SE 17 30 9 16 1014.8 1014.6 0.0
30/12:00pm 30.9 30.1 17.2 43 8.7 ESE 17 28 9 15 1015.3 1015.1 0.0
30/11:30am 30.2 29.5 17.3 46 8.2 SE 17 26 9 14 1015.8 1015.6 0.0
30/11:00am 29.4 28.8 17.6 49 7.5 ESE 17 28 9 15 1016.3 1016.1 0.0
30/10:30am 29.2 29.2 18.0 51 7.1 SE 15 22 8 12 1016.7 1016.5 0.0
30/10:00am 28.3 28.1 18.4 55 6.3 ESE 17 24 9 13 1017.0 1016.8 0.0
30/09:30am 27.0 27.0 18.0 58 5.7 ESE 15 20 8 11 1017.1 1016.9 0.0
30/09:00am 26.0 26.4 18.2 62 4.9 ESE 13 19 7 10 1017.1 1016.9 0.0
30/08:30am 24.9 25.1 17.6 64 4.6 ESE 13 17 7 9 1016.9 1016.7 0.0
30/08:00am 23.8 24.1 17.1 66 4.1 ESE 11 17 6 9 1016.7 1016.5 0.0
30/07:30am 23.0 22.8 16.8 68 3.8 ESE 13 19 7 10 1016.3 1016.1 0.0
30/07:00am 22.5 22.5 16.3 68 3.8 ESE 11 19 6 10 1016.0 1015.8 0.0
30/06:30am 22.7 22.6 16.0 66 4.0 ESE 11 19 6 10 1015.6 1015.4 0.0
30/06:00am 22.9 22.7 15.7 64 4.3 ESE 11 19 6 10 1015.3 1015.1 0.0
30/05:30am 22.9 23.1 15.7 64 4.3 ESE 9 13 5 7 1015.2 1015.0 0.0
30/05:00am 23.3 23.2 15.9 63 4.5 ESE 11 17 6 9 1015.0 1014.8 0.0
30/04:30am 23.2 23.0 15.8 63 4.5 E 11 15 6 8 1015.0 1014.8 0.0
30/04:00am 23.3 23.6 15.9 63 4.5 E 9 13 5 7 1015.1 1014.9 0.0
30/03:30am 23.6 23.5 15.9 62 4.7 ESE 11 15 6 8 1015.2 1015.0 0.0
30/03:00am 23.8 24.0 15.8 61 4.8 E 9 15 5 8 1015.2 1015.0 0.0
30/02:30am 24.4 23.8 15.6 58 5.3 ESE 13 20 7 11 1015.4 1015.2 0.0
30/02:00am 25.2 24.7 15.8 56 5.7 SE 13 20 7 11 1015.6 1015.4 0.0
30/01:30am 25.1 24.7 16.3 58 5.4 ESE 13 19 7 10 1015.7 1015.5 0.0
30/01:00am 25.1 24.9 15.7 56 5.7 ESE 11 15 6 8 1015.7 1015.5 0.0
30/12:30am 24.6 24.9 16.1 59 5.2 ESE 9 13 5 7 1015.5 1015.3 0.0
30/12:00am 24.7 24.8 15.6 57 5.5 ESE 9 13 5 7 1015.7 1015.5 0.0
 
Date/Time
CST
Temp
°C
App
Temp
°C
Dew
Point
°C
Rel
Hum
%
Delta-T
°C
Wind Press
QNH
hPa
Press
MSL
hPa
Rain since
9am
mm
Dir  Spd
km/h
Gust
km/h
Spd
kts
Gust
kts
29/11:30pm 24.8 24.8 15.1 54 5.8 ESE 9 13 5 7 1015.8 1015.6 0.0
29/11:00pm 24.9 24.8 15.0 54 5.9 E 9 11 5 6 1015.8 1015.6 0.0
29/10:30pm 25.2 25.4 14.6 51 6.3 ESE 7 9 4 5 1015.8 1015.6 0.0
29/10:00pm 25.9 26.2 14.4 49 6.9 ESE 6 9 3 5 1015.7 1015.5 0.0
29/09:30pm 26.6 26.9 14.4 47 7.3 SE 6 9 3 5 1015.5 1015.3 0.0
29/09:00pm 27.3 27.3 14.3 45 7.8 ESE 7 9 4 5 1015.3 1015.1 0.0
29/08:30pm 27.6 27.4 14.6 45 7.8 SE 9 13 5 7 1014.9 1014.7 0.0
29/08:00pm 27.9 27.9 14.2 43 8.2 ESE 7 9 4 5 1014.6 1014.4 0.0
29/07:30pm 29.7 29.2 13.9 38 9.5 SE 9 13 5 7 1014.1 1013.9 0.0
29/07:00pm 30.0 29.2 14.1 37 9.6 SE 11 19 6 10 1013.5 1013.3 0.0
29/06:30pm 30.3 30.0 14.4 38 9.7 SE 9 15 5 8 1013.1 1012.9 0.0
29/06:00pm 31.2 30.9 14.4 36 10.2 ESE 9 13 5 7 1012.7 1012.5 0.0
29/05:30pm 32.1 31.5 14.7 35 10.7 ESE 11 19 6 10 1012.3 1012.1 0.0
29/05:00pm 32.4 31.4 14.5 33 11.0 ESE 13 19 7 10 1012.1 1011.9 0.0
29/04:30pm 32.5 31.0 14.1 32 11.2 ESE 15 26 8 14 1012.0 1011.8 0.0
29/04:00pm 32.5 31.0 14.1 32 11.2 ESE 15 26 8 14 1011.9 1011.7 0.0
29/03:30pm 32.4 30.3 13.6 32 11.4 ESE 17 24 9 13 1012.1 1011.9 0.0
29/03:00pm 32.3 30.0 14.0 33 11.1 ESE 19 28 10 15 1012.4 1012.2 0.0
29/02:30pm 32.0 29.6 13.7 33 11.1 E 19 32 10 17 1012.7 1012.5 0.0
29/02:00pm 31.7 30.0 13.5 33 11.0 SE 15 30 8 16 1013.2 1013.0 0.0
29/01:30pm 31.3 29.2 13.6 34 10.7 ESE 17 30 9 16 1013.8 1013.6 0.0
29/01:00pm 30.5 28.4 13.7 35 10.1 ESE 17 28 9 15 1014.5 1014.3 0.0
29/12:30pm 29.9 27.4 13.6 36 9.8 ESE 19 30 10 16 1015.2 1015.0 0.0
29/12:00pm 30.7 28.8 14.3 36 9.9 ESE 17 33 9 18 1015.7 1015.5 0.0
29/11:30am 29.3 26.9 13.9 39 9.2 ESE 19 30 10 16 1016.2 1016.0 0.0
29/11:00am 28.5 26.3 13.2 39 9.1 SE 17 28 9 15 1016.6 1016.4 0.0
29/10:30am 27.4 25.9 14.1 44 7.9 SE 15 28 8 15 1017.1 1016.9 0.0
29/10:00am 26.6 24.2 14.4 47 7.3 ESE 20 30 11 16 1017.2 1017.0 0.0
29/09:30am 25.9 23.8 15.3 52 6.4 ESE 20 33 11 18 1017.1 1016.9 0.0
29/09:00am 25.2 23.7 16.4 58 5.4 SE 19 32 10 17 1017.2 1017.0 0.0
29/08:30am 24.3 24.1 16.8 63 4.6 ESE 13 24 7 13 1017.1 1016.9 0.0
29/08:00am 23.5 23.0 17.0 67 4.0 SE 15 24 8 13 1016.9 1016.7 0.0
29/07:30am 22.9 22.8 16.9 69 3.7 ESE 13 26 7 14 1016.6 1016.4 0.0
29/07:00am 22.6 23.0 16.2 67 3.9 SE 9 17 5 9 1016.5 1016.3 0.0
29/06:30am 22.7 22.2 15.8 65 4.2 SE 13 22 7 12 1016.2 1016.0 0.0
29/06:00am 22.4 22.3 15.0 63 4.4 SSE 9 15 5 8 1016.1 1015.9 0.0
29/05:30am 22.1 22.4 15.0 64 4.2 SE 7 13 4 7 1015.7 1015.5 0.0
29/05:00am 22.3 22.3 14.2 60 4.7 ESE 7 17 4 9 1015.7 1015.5 0.0
29/04:30am 22.7 22.6 14.0 58 5.1 ESE 7 11 4 6 1015.6 1015.4 0.0
29/04:00am 23.1 22.9 14.7 59 5.0 ESE 9 15 5 8 1015.6 1015.4 0.0
29/03:30am 23.0 23.0 15.1 61 4.7 SE 9 11 5 6 1015.8 1015.6 0.0
29/03:00am 23.4 23.9 15.5 61 4.7 ESE 7 11 4 6 1015.8 1015.6 0.0
29/02:30am 24.0 23.9 16.0 61 4.9 E 11 15 6 8 1015.9 1015.7 0.0
29/02:00am 24.4 24.7 16.1 60 5.1 ESE 9 15 5 8 1015.8 1015.6 0.0
29/01:30am 25.1 24.4 16.3 58 5.4 ESE 15 24 8 13 1016.0 1015.8 0.0
29/01:00am 25.0 24.8 16.7 60 5.1 E 13 24 7 13 1016.0 1015.8 0.0
29/12:30am 25.1 26.2 17.1 61 5.0 ESE 7 9 4 5 1016.1 1015.9 0.0
29/12:00am 25.9 25.8 17.0 58 5.5 ESE 13 24 7 13 1016.2 1016.0 0.0
 
Date/Time
CST
Temp
°C
App
Temp
°C
Dew
Point
°C
Rel
Hum
%
Delta-T
°C
Wind Press
QNH
hPa
Press
MSL
hPa
Rain since
9am
mm
Dir  Spd
km/h
Gust
km/h
Spd
kts
Gust
kts
28/11:30pm 26.2 26.4 16.7 56 5.9 ESE 11 15 6 8 1016.2 1016.0 0.0
28/11:00pm 26.7 26.6 16.9 55 6.1 E 13 22 7 12 1016.3 1016.1 0.0
28/10:30pm 26.9 26.6 16.5 53 6.4 E 13 20 7 11 1015.9 1015.7 0.0
28/10:00pm 27.4 27.2 16.7 52 6.7 E 13 20 7 11 1015.7 1015.5 0.0
28/09:30pm 27.9 27.2 16.5 50 7.1 E 15 24 8 13 1015.6 1015.4 0.0
28/09:00pm 28.2 28.4 15.8 47 7.6 E 9 15 5 8 1015.3 1015.1 0.0
28/08:30pm 28.6 28.3 15.5 45 8.0 ESE 11 17 6 9 1015.0 1014.8 0.0
28/08:00pm 28.3 28.6 15.9 47 7.6 ESE 9 13 5 7 1014.4 1014.2 0.0
28/07:30pm 28.8 29.1 16.0 45 7.9 ESE 9 13 5 7 1013.8 1013.6 0.0
28/07:00pm 29.4 29.8 16.2 44 8.2 E 9 15 5 8 1013.6 1013.4 0.0
28/06:30pm 30.2 30.2 16.2 42 8.7 E 11 17 6 9 1013.3 1013.1 0.0
28/06:00pm 31.2 31.1 16.0 40 9.5 ESE 11 19 6 10 1012.9 1012.7 0.0
28/05:30pm 31.9 30.6 15.8 38 10.0 E 17 28 9 15 1012.6 1012.4 0.0
28/05:00pm 32.3 31.0 15.7 36 10.4 E 17 26 9 14 1012.4 1012.2 0.0
28/04:30pm 32.7 31.5 16.1 37 10.4 ESE 17 26 9 14 1012.1 1011.9 0.0
28/04:00pm 32.9 30.8 16.3 37 10.5 E 22 32 12 17 1011.8 1011.6 0.0
28/03:30pm 33.2 31.4 16.1 35 10.8 ESE 20 33 11 18 1011.9 1011.7 0.0
28/03:00pm 33.3 31.2 16.2 36 10.8 ENE 22 35 12 19 1011.9 1011.7 0.0
28/02:30pm 33.2 31.8 16.5 36 10.6 E 19 32 10 17 1012.1 1011.9 0.0
28/02:00pm 33.9 32.7 17.6 38 10.5 E 20 33 11 18 1012.5 1012.3 0.0
28/01:30pm 32.6 31.6 17.6 40 9.6 ESE 19 30 10 16 1013.0 1012.8 0.0
28/01:00pm 32.0 31.5 17.9 43 9.1 ESE 17 28 9 15 1013.5 1013.3 0.0
28/12:30pm 31.9 31.3 18.5 45 8.7 ESE 19 30 10 16 1014.0 1013.8 0.0
28/12:00pm 30.8 29.0 17.8 45 8.3 E 24 35 13 19 1014.6 1014.4 0.0
28/11:30am 30.9 28.5 18.3 47 8.1 E 28 43 15 23 1015.0 1014.8 0.0
28/11:00am 30.4 29.8 18.8 50 7.5 ESE 20 33 11 18 1015.4 1015.2 0.0
28/10:30am 29.0 27.0 18.4 52 6.8 ESE 26 43 14 23 1015.4 1015.2 0.0
28/10:00am 28.9 26.9 18.4 53 6.7 ESE 26 39 14 21 1015.2 1015.0 0.0
28/09:30am 28.7 27.5 19.3 56 6.1 ESE 24 33 13 18 1015.2 1015.0 0.0
28/09:00am 27.7 27.4 19.5 61 5.3 ESE 20 32 11 17 1015.1 1014.9 0.0
28/08:30am 26.9 27.3 19.8 65 4.6 ESE 17 24 9 13 1014.9 1014.7 0.0
28/08:00am 26.1 27.7 20.0 69 4.0 ESE 11 17 6 9 1014.6 1014.4 0.0
28/07:30am 25.2 26.4 19.8 72 3.5 ESE 13 19 7 10 1014.4 1014.2 0.0
28/07:00am 24.6 26.5 19.7 74 3.2 SE 9 15 5 8 1014.2 1014.0 0.0
28/06:30am 24.8 25.8 19.4 72 3.5 ESE 13 20 7 11 1013.9 1013.7 0.0
28/06:00am 24.8 25.4 19.4 72 3.5 ESE 15 26 8 14 1013.8 1013.6 0.0
28/05:30am 24.7 26.4 19.3 72 3.5 ESE 9 15 5 8 1013.4 1013.2 0.0
28/05:00am 24.9 26.2 19.3 71 3.6 ESE 11 17 6 9 1013.4 1013.2 0.0
28/04:30am 24.5 26.1 19.1 72 3.5 ESE 9 15 5 8 1013.4 1013.2 0.0
28/04:00am 24.1 26.1 19.2 74 3.1 ESE 7 9 4 5 1013.4 1013.2 0.0
28/03:30am 24.4 26.6 19.7 75 3.0 ESE 7 9 4 5 1013.4 1013.2 0.0
28/03:00am 24.7 27.1 20.0 75 3.0 ESE 7 11 4 6 1013.4 1013.2 0.0
28/02:30am 24.9 26.7 20.4 76 2.9 E 11 11 6 6 1013.6 1013.4 0.0
28/02:00am 25.2 27.4 20.5 75 3.1 ESE 9 11 5 6 1013.8 1013.6 0.0
28/01:30am 25.1 27.3 20.4 75 3.1 E 9 11 5 6 1014.0 1013.8 0.0
28/01:00am 25.6 28.2 20.4 73 3.4 ESE 7 9 4 5 1014.1 1013.9 0.0
28/12:30am 25.9 28.4 20.2 71 3.7 E 7 9 4 5 1014.2 1014.0 0.0
28/12:00am 26.2 28.4 20.5 71 3.7 ENE 9 13 5 7 1014.2 1014.0 0.0

Other Formats:

Comma delimited format used in spreadsheet applications
http://www.bom.gov.au/fwo/IDD60801/IDD60801.94137.axf

JavaScript Object Notation format (JSON) in row-major order
http://www.bom.gov.au/fwo/IDD60801/IDD60801.94137.json